East Hebron, New York
Current Conditions -  °F | °C
As of 2:53 PM on Monday 22 Dec 2014 (Local Time) from KGFL Reporting Station
Overcast Overcast  
Wind Chill: 34°   Ceiling: 4500
Heat Index: 34°   Visibility: 8mi
Dew Point: 26°   Wind: 0mph
Humidity: 73%   Direction: NA
Pressure: 30.27"   Gusts: NA
Location:  43.2004°N, 73.3317°W
Report Text: KGFL 221953Z AUTO 00000KT 8SM OVC045 01/M03 A3027 RMK AO2 SLP259 T00111033
Loading
Personal Weather Stations






























Interactive Weather Map New forecast layout! Learn more

10-Day Weather Forecast

Advertisements
Track Severe Weather on mobile